Weather at Collins-Flege Airpark

Public forecast

Using degrees Fahrenheit for public forecast. Weather courtesy of forecast.io.

Closest aviation weather report (METAR) to Collins-Flege Airpark

Closest report is Butler Co Regional Airport - Hogan Field, 8.4 nm (15.5 km) W. Retrieved 2021/06/13 15:53 UTC (34 minutes ago):

KHAO 131553Z AUTO VRB05KT 10SM CLR 30/21 A2992 RMK AO2 RAE52 SLP125 P0000 T03000211

Closest aviation forecast (TAF) to Collins-Flege Airpark

Closest forecast is Cincinnati Municipal Airport Lunken Field, 16.0 nm (29.6 km) SSW. Retrieved 2021/06/13 12:36 UTC (4 hours ago):

TAF KLUK 131133Z 1312/1412 24005KT P6SM SCT070 FM131500 32005KT P6SM VCTS SCT035CB FM131900 33007KT P6SM SCT040 FM140000 35008KT P6SM SCT250 FM141000 00000KT 5SM BR SKC